sensor_id;sensor_type;location;lat;lon;timestamp;P1;durP1;ratioP1;P2;durP2;ratioP2
9214;SDS011;4642;51.364;6.788;2023-07-20T00:01:13;5.77;;;1.93;;
9214;SDS011;4642;51.364;6.788;2023-07-20T00:03:39;3.97;;;2.20;;
9214;SDS011;4642;51.364;6.788;2023-07-20T00:06:05;3.27;;;1.77;;
9214;SDS011;4642;51.364;6.788;2023-07-20T00:08:30;5.43;;;1.80;;
9214;SDS011;4642;51.364;6.788;2023-07-20T00:10:56;5.17;;;2.00;;
9214;SDS011;4642;51.364;6.788;2023-07-20T00:13:22;2.60;;;1.80;;
9214;SDS011;4642;51.364;6.788;2023-07-20T00:15:47;5.57;;;1.70;;
9214;SDS011;4642;51.364;6.788;2023-07-20T00:18:13;2.00;;;1.60;;
9214;SDS011;4642;51.364;6.788;2023-07-20T00:20:39;3.87;;;2.10;;
9214;SDS011;4642;51.364;6.788;2023-07-20T00:23:05;5.13;;;1.80;;
9214;SDS011;4642;51.364;6.788;2023-07-20T00:25:30;3.33;;;1.87;;
9214;SDS011;4642;51.364;6.788;2023-07-20T00:27:56;5.80;;;2.17;;
9214;SDS011;4642;51.364;6.788;2023-07-20T00:30:21;4.23;;;2.00;;
9214;SDS011;4642;51.364;6.788;2023-07-20T00:32:47;2.90;;;2.07;;
9214;SDS011;4642;51.364;6.788;2023-07-20T00:35:12;3.70;;;2.10;;
9214;SDS011;4642;51.364;6.788;2023-07-20T00:37:39;6.40;;;2.07;;
9214;SDS011;4642;51.364;6.788;2023-07-20T00:40:04;4.57;;;1.90;;
9214;SDS011;4642;51.364;6.788;2023-07-20T00:42:32;4.17;;;2.70;;
9214;SDS011;4642;51.364;6.788;2023-07-20T00:44:58;3.17;;;1.80;;
9214;SDS011;4642;51.364;6.788;2023-07-20T00:47:23;3.97;;;2.03;;
9214;SDS011;4642;51.364;6.788;2023-07-20T00:49:49;2.83;;;2.10;;
9214;SDS011;4642;51.364;6.788;2023-07-20T00:52:16;6.10;;;2.37;;
9214;SDS011;4642;51.364;6.788;2023-07-20T00:54:43;3.90;;;2.10;;
9214;SDS011;4642;51.364;6.788;2023-07-20T00:57:09;6.57;;;2.30;;
9214;SDS011;4642;51.364;6.788;2023-07-20T00:59:36;2.87;;;2.00;;
9214;SDS011;4642;51.364;6.788;2023-07-20T01:02:02;4.13;;;2.00;;
9214;SDS011;4642;51.364;6.788;2023-07-20T01:04:28;4.97;;;2.23;;
9214;SDS011;4642;51.364;6.788;2023-07-20T01:07:05;3.90;;;1.87;;
9214;SDS011;4642;51.364;6.788;2023-07-20T01:09:39;2.27;;;2.03;;
9214;SDS011;4642;51.364;6.788;2023-07-20T01:12:19;6.53;;;2.87;;
9214;SDS011;4642;51.364;6.788;2023-07-20T01:14:52;5.00;;;3.50;;
9214;SDS011;4642;51.364;6.788;2023-07-20T01:17:19;7.23;;;3.97;;
9214;SDS011;4642;51.364;6.788;2023-07-20T01:19:44;7.40;;;4.83;;
9214;SDS011;4642;51.364;6.788;2023-07-20T01:32:51;6.80;;;4.53;;
9214;SDS011;4642;51.364;6.788;2023-07-20T01:35:20;5.20;;;4.37;;
9214;SDS011;4642;51.364;6.788;2023-07-20T01:37:48;9.40;;;4.60;;
9214;SDS011;4642;51.364;6.788;2023-07-20T01:40:15;9.53;;;4.70;;
9214;SDS011;4642;51.364;6.788;2023-07-20T01:42:48;9.67;;;4.67;;
9214;SDS011;4642;51.364;6.788;2023-07-20T01:45:14;6.83;;;4.47;;
9214;SDS011;4642;51.364;6.788;2023-07-20T01:47:39;7.10;;;4.23;;
9214;SDS011;4642;51.364;6.788;2023-07-20T01:50:06;7.43;;;4.70;;
9214;SDS011;4642;51.364;6.788;2023-07-20T01:52:32;6.30;;;3.80;;
9214;SDS011;4642;51.364;6.788;2023-07-20T01:54:58;10.47;;;4.70;;
9214;SDS011;4642;51.364;6.788;2023-07-20T01:57:23;6.13;;;4.43;;
9214;SDS011;4642;51.364;6.788;2023-07-20T01:59:49;5.50;;;4.13;;
9214;SDS011;4642;51.364;6.788;2023-07-20T02:02:14;11.57;;;3.50;;
9214;SDS011;4642;51.364;6.788;2023-07-20T02:04:40;5.23;;;3.30;;
9214;SDS011;4642;51.364;6.788;2023-07-20T02:07:05;8.27;;;4.90;;
9214;SDS011;4642;51.364;6.788;2023-07-20T02:09:31;7.77;;;5.03;;
9214;SDS011;4642;51.364;6.788;2023-07-20T02:11:56;9.07;;;5.40;;
9214;SDS011;4642;51.364;6.788;2023-07-20T02:14:22;12.00;;;4.83;;
9214;SDS011;4642;51.364;6.788;2023-07-20T02:16:48;6.60;;;4.40;;
9214;SDS011;4642;51.364;6.788;2023-07-20T02:19:18;10.50;;;4.10;;
9214;SDS011;4642;51.364;6.788;2023-07-20T02:21:44;4.53;;;3.90;;
9214;SDS011;4642;51.364;6.788;2023-07-20T02:24:10;7.23;;;4.00;;
9214;SDS011;4642;51.364;6.788;2023-07-20T02:26:36;4.80;;;3.80;;
9214;SDS011;4642;51.364;6.788;2023-07-20T02:29:02;6.97;;;4.30;;
9214;SDS011;4642;51.364;6.788;2023-07-20T02:31:29;6.40;;;3.80;;
9214;SDS011;4642;51.364;6.788;2023-07-20T02:33:55;6.60;;;4.37;;
9214;SDS011;4642;51.364;6.788;2023-07-20T02:36:21;5.57;;;3.93;;
9214;SDS011;4642;51.364;6.788;2023-07-20T02:38:46;6.70;;;4.53;;
9214;SDS011;4642;51.364;6.788;2023-07-20T02:41:12;6.20;;;4.37;;
9214;SDS011;4642;51.364;6.788;2023-07-20T02:43:39;5.27;;;4.07;;
9214;SDS011;4642;51.364;6.788;2023-07-20T02:46:04;8.50;;;4.60;;
9214;SDS011;4642;51.364;6.788;2023-07-20T02:48:30;6.53;;;4.53;;
9214;SDS011;4642;51.364;6.788;2023-07-20T02:50:55;6.40;;;4.60;;
9214;SDS011;4642;51.364;6.788;2023-07-20T02:53:21;6.83;;;4.83;;
9214;SDS011;4642;51.364;6.788;2023-07-20T02:55:46;5.23;;;4.33;;
9214;SDS011;4642;51.364;6.788;2023-07-20T02:58:12;11.33;;;5.00;;
9214;SDS011;4642;51.364;6.788;2023-07-20T03:00:37;9.03;;;4.93;;
9214;SDS011;4642;51.364;6.788;2023-07-20T03:03:03;11.30;;;5.00;;
9214;SDS011;4642;51.364;6.788;2023-07-20T03:05:28;7.40;;;5.07;;
9214;SDS011;4642;51.364;6.788;2023-07-20T03:07:55;6.53;;;4.97;;
9214;SDS011;4642;51.364;6.788;2023-07-20T03:10:21;10.00;;;5.40;;
9214;SDS011;4642;51.364;6.788;2023-07-20T03:12:46;10.57;;;4.87;;
9214;SDS011;4642;51.364;6.788;2023-07-20T03:15:12;8.47;;;4.90;;
9214;SDS011;4642;51.364;6.788;2023-07-20T03:17:37;6.70;;;5.00;;
9214;SDS011;4642;51.364;6.788;2023-07-20T03:20:03;8.67;;;4.77;;
9214;SDS011;4642;51.364;6.788;2023-07-20T03:22:30;10.43;;;5.03;;
9214;SDS011;4642;51.364;6.788;2023-07-20T03:24:56;9.67;;;5.07;;
9214;SDS011;4642;51.364;6.788;2023-07-20T03:27:21;9.47;;;4.90;;
9214;SDS011;4642;51.364;6.788;2023-07-20T03:29:47;8.17;;;4.60;;
9214;SDS011;4642;51.364;6.788;2023-07-20T03:32:13;11.00;;;5.27;;
9214;SDS011;4642;51.364;6.788;2023-07-20T03:34:38;8.30;;;5.03;;
9214;SDS011;4642;51.364;6.788;2023-07-20T03:37:04;8.77;;;5.40;;
9214;SDS011;4642;51.364;6.788;2023-07-20T03:39:30;9.37;;;4.93;;
9214;SDS011;4642;51.364;6.788;2023-07-20T03:41:55;13.10;;;5.87;;
9214;SDS011;4642;51.364;6.788;2023-07-20T03:44:23;11.73;;;6.57;;
9214;SDS011;4642;51.364;6.788;2023-07-20T03:46:48;10.93;;;6.80;;
9214;SDS011;4642;51.364;6.788;2023-07-20T03:49:14;14.93;;;6.97;;
9214;SDS011;4642;51.364;6.788;2023-07-20T03:51:39;10.67;;;6.20;;
9214;SDS011;4642;51.364;6.788;2023-07-20T03:54:05;18.40;;;7.53;;
9214;SDS011;4642;51.364;6.788;2023-07-20T03:56:30;9.93;;;6.43;;
9214;SDS011;4642;51.364;6.788;2023-07-20T03:59:00;16.43;;;7.80;;
9214;SDS011;4642;51.364;6.788;2023-07-20T04:01:25;12.67;;;7.90;;
9214;SDS011;4642;51.364;6.788;2023-07-20T04:03:51;12.53;;;7.67;;
9214;SDS011;4642;51.364;6.788;2023-07-20T04:06:16;11.07;;;8.07;;
9214;SDS011;4642;51.364;6.788;2023-07-20T04:08:42;16.30;;;8.17;;
9214;SDS011;4642;51.364;6.788;2023-07-20T04:11:09;16.50;;;8.13;;
9214;SDS011;4642;51.364;6.788;2023-07-20T04:13:34;9.37;;;7.83;;
9214;SDS011;4642;51.364;6.788;2023-07-20T04:16:00;11.67;;;7.93;;
9214;SDS011;4642;51.364;6.788;2023-07-20T04:18:25;14.23;;;8.37;;
9214;SDS011;4642;51.364;6.788;2023-07-20T04:20:51;15.73;;;8.50;;
9214;SDS011;4642;51.364;6.788;2023-07-20T04:23:17;13.30;;;9.23;;
9214;SDS011;4642;51.364;6.788;2023-07-20T04:25:42;14.03;;;8.90;;
9214;SDS011;4642;51.364;6.788;2023-07-20T04:28:08;15.43;;;10.40;;
9214;SDS011;4642;51.364;6.788;2023-07-20T04:30:35;11.33;;;9.33;;
9214;SDS011;4642;51.364;6.788;2023-07-20T04:33:01;13.30;;;9.87;;
9214;SDS011;4642;51.364;6.788;2023-07-20T04:35:46;11.93;;;9.13;;
9214;SDS011;4642;51.364;6.788;2023-07-20T04:38:14;14.93;;;11.63;;
9214;SDS011;4642;51.364;6.788;2023-07-20T04:40:42;14.73;;;12.17;;
9214;SDS011;4642;51.364;6.788;2023-07-20T04:43:09;17.37;;;11.40;;
9214;SDS011;4642;51.364;6.788;2023-07-20T04:45:34;15.70;;;11.10;;
9214;SDS011;4642;51.364;6.788;2023-07-20T04:48:00;17.67;;;11.40;;
9214;SDS011;4642;51.364;6.788;2023-07-20T04:50:25;13.67;;;10.83;;
9214;SDS011;4642;51.364;6.788;2023-07-20T04:52:51;20.13;;;11.20;;
9214;SDS011;4642;51.364;6.788;2023-07-20T04:55:18;13.23;;;10.73;;
9214;SDS011;4642;51.364;6.788;2023-07-20T04:57:43;16.70;;;11.13;;
9214;SDS011;4642;51.364;6.788;2023-07-20T05:00:09;15.23;;;11.67;;
9214;SDS011;4642;51.364;6.788;2023-07-20T05:02:36;16.60;;;10.93;;
9214;SDS011;4642;51.364;6.788;2023-07-20T05:05:03;17.50;;;12.67;;
9214;SDS011;4642;51.364;6.788;2023-07-20T05:07:30;19.17;;;12.13;;
9214;SDS011;4642;51.364;6.788;2023-07-20T05:09:58;16.50;;;11.97;;
9214;SDS011;4642;51.364;6.788;2023-07-20T05:12:24;21.20;;;12.67;;
9214;SDS011;4642;51.364;6.788;2023-07-20T05:14:49;15.17;;;12.57;;
9214;SDS011;4642;51.364;6.788;2023-07-20T05:17:15;13.90;;;12.20;;
9214;SDS011;4642;51.364;6.788;2023-07-20T05:19:40;12.47;;;10.83;;
9214;SDS011;4642;51.364;6.788;2023-07-20T05:22:06;14.60;;;11.97;;
9214;SDS011;4642;51.364;6.788;2023-07-20T05:24:31;19.73;;;11.30;;
9214;SDS011;4642;51.364;6.788;2023-07-20T05:26:58;16.00;;;12.30;;
9214;SDS011;4642;51.364;6.788;2023-07-20T05:29:24;14.13;;;11.20;;
9214;SDS011;4642;51.364;6.788;2023-07-20T05:31:50;17.87;;;11.40;;
9214;SDS011;4642;51.364;6.788;2023-07-20T05:34:16;13.40;;;11.30;;
9214;SDS011;4642;51.364;6.788;2023-07-20T05:36:42;16.17;;;11.43;;
9214;SDS011;4642;51.364;6.788;2023-07-20T05:39:07;15.07;;;11.70;;
9214;SDS011;4642;51.364;6.788;2023-07-20T05:41:33;18.27;;;11.63;;
9214;SDS011;4642;51.364;6.788;2023-07-20T05:43:58;18.67;;;12.33;;
9214;SDS011;4642;51.364;6.788;2023-07-20T05:46:24;17.90;;;11.90;;
9214;SDS011;4642;51.364;6.788;2023-07-20T05:48:49;12.90;;;10.60;;
9214;SDS011;4642;51.364;6.788;2023-07-20T05:51:15;15.37;;;9.67;;
9214;SDS011;4642;51.364;6.788;2023-07-20T05:53:40;11.40;;;10.20;;
9214;SDS011;4642;51.364;6.788;2023-07-20T05:56:06;12.17;;;9.63;;
9214;SDS011;4642;51.364;6.788;2023-07-20T05:58:35;10.67;;;9.57;;
9214;SDS011;4642;51.364;6.788;2023-07-20T06:01:01;9.63;;;8.63;;
9214;SDS011;4642;51.364;6.788;2023-07-20T06:03:27;10.80;;;9.40;;
9214;SDS011;4642;51.364;6.788;2023-07-20T06:05:59;10.93;;;8.90;;
9214;SDS011;4642;51.364;6.788;2023-07-20T06:08:26;9.57;;;8.23;;
9214;SDS011;4642;51.364;6.788;2023-07-20T06:10:51;8.57;;;7.07;;
9214;SDS011;4642;51.364;6.788;2023-07-20T06:13:17;7.53;;;6.60;;
9214;SDS011;4642;51.364;6.788;2023-07-20T06:15:42;10.60;;;6.40;;
9214;SDS011;4642;51.364;6.788;2023-07-20T06:18:08;6.67;;;4.97;;
9214;SDS011;4642;51.364;6.788;2023-07-20T06:20:34;6.27;;;4.70;;
9214;SDS011;4642;51.364;6.788;2023-07-20T06:23:00;7.07;;;4.70;;
9214;SDS011;4642;51.364;6.788;2023-07-20T06:25:25;5.53;;;4.33;;
9214;SDS011;4642;51.364;6.788;2023-07-20T06:27:51;5.10;;;4.50;;
9214;SDS011;4642;51.364;6.788;2023-07-20T06:30:17;5.10;;;4.60;;
9214;SDS011;4642;51.364;6.788;2023-07-20T06:32:43;6.17;;;5.00;;
9214;SDS011;4642;51.364;6.788;2023-07-20T06:35:08;7.47;;;6.47;;
9214;SDS011;4642;51.364;6.788;2023-07-20T06:37:34;9.30;;;6.17;;
9214;SDS011;4642;51.364;6.788;2023-07-20T06:40:01;9.47;;;6.67;;
9214;SDS011;4642;51.364;6.788;2023-07-20T06:42:28;8.30;;;6.07;;
9214;SDS011;4642;51.364;6.788;2023-07-20T06:44:53;6.37;;;5.47;;
9214;SDS011;4642;51.364;6.788;2023-07-20T06:47:19;8.80;;;6.27;;
9214;SDS011;4642;51.364;6.788;2023-07-20T06:49:44;7.57;;;5.67;;
9214;SDS011;4642;51.364;6.788;2023-07-20T06:52:10;6.90;;;5.17;;
9214;SDS011;4642;51.364;6.788;2023-07-20T06:54:35;7.90;;;5.53;;
9214;SDS011;4642;51.364;6.788;2023-07-20T06:57:01;6.13;;;5.53;;
9214;SDS011;4642;51.364;6.788;2023-07-20T06:59:27;6.67;;;5.13;;
9214;SDS011;4642;51.364;6.788;2023-07-20T07:01:52;5.20;;;4.70;;
9214;SDS011;4642;51.364;6.788;2023-07-20T07:04:18;5.63;;;4.37;;
9214;SDS011;4642;51.364;6.788;2023-07-20T07:06:43;6.43;;;4.60;;
9214;SDS011;4642;51.364;6.788;2023-07-20T07:09:09;4.63;;;4.03;;
9214;SDS011;4642;51.364;6.788;2023-07-20T07:11:34;4.67;;;4.00;;
9214;SDS011;4642;51.364;6.788;2023-07-20T07:14:00;4.90;;;4.40;;
9214;SDS011;4642;51.364;6.788;2023-07-20T07:16:26;13.43;;;10.87;;
9214;SDS011;4642;51.364;6.788;2023-07-20T07:18:51;14.10;;;11.77;;
9214;SDS011;4642;51.364;6.788;2023-07-20T07:21:17;20.07;;;15.50;;
9214;SDS011;4642;51.364;6.788;2023-07-20T07:23:42;18.33;;;15.73;;
9214;SDS011;4642;51.364;6.788;2023-07-20T07:26:08;19.60;;;17.47;;
9214;SDS011;4642;51.364;6.788;2023-07-20T07:28:34;17.80;;;16.20;;
9214;SDS011;4642;51.364;6.788;2023-07-20T07:31:00;18.00;;;16.23;;
9214;SDS011;4642;51.364;6.788;2023-07-20T07:33:25;17.43;;;15.53;;
9214;SDS011;4642;51.364;6.788;2023-07-20T07:35:51;17.80;;;14.70;;
9214;SDS011;4642;51.364;6.788;2023-07-20T07:38:20;16.17;;;13.73;;
9214;SDS011;4642;51.364;6.788;2023-07-20T07:40:45;9.43;;;7.70;;
9214;SDS011;4642;51.364;6.788;2023-07-20T07:43:11;10.27;;;9.10;;
9214;SDS011;4642;51.364;6.788;2023-07-20T07:45:38;15.90;;;10.30;;
9214;SDS011;4642;51.364;6.788;2023-07-20T07:48:04;14.83;;;11.97;;
9214;SDS011;4642;51.364;6.788;2023-07-20T07:50:31;13.50;;;11.83;;
9214;SDS011;4642;51.364;6.788;2023-07-20T07:52:57;14.20;;;11.40;;
9214;SDS011;4642;51.364;6.788;2023-07-20T07:55:22;8.83;;;7.50;;
9214;SDS011;4642;51.364;6.788;2023-07-20T07:57:49;9.23;;;6.73;;
9214;SDS011;4642;51.364;6.788;2023-07-20T08:00:15;7.20;;;4.60;;
9214;SDS011;4642;51.364;6.788;2023-07-20T08:02:43;5.73;;;4.90;;
9214;SDS011;4642;51.364;6.788;2023-07-20T08:05:10;5.20;;;3.73;;
9214;SDS011;4642;51.364;6.788;2023-07-20T08:07:36;2.83;;;2.20;;
9214;SDS011;4642;51.364;6.788;2023-07-20T08:10:01;3.47;;;2.10;;
9214;SDS011;4642;51.364;6.788;2023-07-20T08:12:28;3.07;;;1.80;;
9214;SDS011;4642;51.364;6.788;2023-07-20T08:14:53;2.07;;;1.70;;
9214;SDS011;4642;51.364;6.788;2023-07-20T08:17:19;1.87;;;1.60;;
9214;SDS011;4642;51.364;6.788;2023-07-20T08:19:45;1.73;;;1.50;;
9214;SDS011;4642;51.364;6.788;2023-07-20T08:22:11;1.50;;;1.40;;
9214;SDS011;4642;51.364;6.788;2023-07-20T08:24:40;3.80;;;1.50;;
9214;SDS011;4642;51.364;6.788;2023-07-20T08:27:06;2.40;;;1.40;;
9214;SDS011;4642;51.364;6.788;2023-07-20T08:36:17;1.70;;;1.20;;
9214;SDS011;4642;51.364;6.788;2023-07-20T08:38:43;2.37;;;1.10;;
9214;SDS011;4642;51.364;6.788;2023-07-20T08:41:08;2.03;;;1.47;;
9214;SDS011;4642;51.364;6.788;2023-07-20T08:43:34;2.77;;;1.70;;
9214;SDS011;4642;51.364;6.788;2023-07-20T08:46:02;2.13;;;1.47;;
9214;SDS011;4642;51.364;6.788;2023-07-20T08:48:29;1.97;;;1.40;;
9214;SDS011;4642;51.364;6.788;2023-07-20T08:50:56;1.77;;;1.60;;
9214;SDS011;4642;51.364;6.788;2023-07-20T08:53:25;2.33;;;1.67;;
9214;SDS011;4642;51.364;6.788;2023-07-20T08:55:51;2.30;;;1.53;;
9214;SDS011;4642;51.364;6.788;2023-07-20T08:58:17;2.50;;;1.60;;
9214;SDS011;4642;51.364;6.788;2023-07-20T09:00:43;1.37;;;1.27;;
9214;SDS011;4642;51.364;6.788;2023-07-20T09:03:10;3.03;;;1.67;;
9214;SDS011;4642;51.364;6.788;2023-07-20T09:05:36;1.50;;;1.40;;
9214;SDS011;4642;51.364;6.788;2023-07-20T09:08:02;1.63;;;1.30;;
9214;SDS011;4642;51.364;6.788;2023-07-20T09:10:28;2.40;;;1.90;;
9214;SDS011;4642;51.364;6.788;2023-07-20T09:12:54;4.73;;;1.50;;
9214;SDS011;4642;51.364;6.788;2023-07-20T09:15:21;2.50;;;1.63;;
9214;SDS011;4642;51.364;6.788;2023-07-20T09:17:47;2.67;;;1.33;;
9214;SDS011;4642;51.364;6.788;2023-07-20T09:20:18;1.70;;;1.50;;
9214;SDS011;4642;51.364;6.788;2023-07-20T09:22:45;3.40;;;1.20;;
9214;SDS011;4642;51.364;6.788;2023-07-20T09:25:17;3.17;;;1.10;;
9214;SDS011;4642;51.364;6.788;2023-07-20T09:27:47;2.27;;;1.20;;
9214;SDS011;4642;51.364;6.788;2023-07-20T09:30:14;1.40;;;1.07;;
9214;SDS011;4642;51.364;6.788;2023-07-20T09:32:42;2.93;;;1.00;;
9214;SDS011;4642;51.364;6.788;2023-07-20T09:35:14;0.97;;;0.70;;
9214;SDS011;4642;51.364;6.788;2023-07-20T09:37:45;1.60;;;1.13;;
9214;SDS011;4642;51.364;6.788;2023-07-20T09:40:17;1.47;;;1.37;;
9214;SDS011;4642;51.364;6.788;2023-07-20T09:42:43;4.23;;;1.07;;
9214;SDS011;4642;51.364;6.788;2023-07-20T09:45:09;1.53;;;1.23;;
9214;SDS011;4642;51.364;6.788;2023-07-20T09:47:35;2.03;;;1.50;;
9214;SDS011;4642;51.364;6.788;2023-07-20T09:50:03;1.43;;;1.20;;
9214;SDS011;4642;51.364;6.788;2023-07-20T09:52:29;1.57;;;1.40;;
9214;SDS011;4642;51.364;6.788;2023-07-20T09:54:56;1.40;;;1.30;;
9214;SDS011;4642;51.364;6.788;2023-07-20T09:57:23;2.20;;;1.30;;
9214;SDS011;4642;51.364;6.788;2023-07-20T09:59:51;1.53;;;1.27;;
9214;SDS011;4642;51.364;6.788;2023-07-20T10:02:20;3.33;;;1.03;;
9214;SDS011;4642;51.364;6.788;2023-07-20T10:04:49;0.90;;;0.77;;
9214;SDS011;4642;51.364;6.788;2023-07-20T10:07:18;2.40;;;1.00;;
9214;SDS011;4642;51.364;6.788;2023-07-20T10:09:46;0.80;;;0.80;;
9214;SDS011;4642;51.364;6.788;2023-07-20T10:12:15;1.07;;;0.97;;
9214;SDS011;4642;51.364;6.788;2023-07-20T10:14:42;1.80;;;0.80;;
9214;SDS011;4642;51.364;6.788;2023-07-20T10:17:16;1.07;;;0.77;;
9214;SDS011;4642;51.364;6.788;2023-07-20T10:19:43;2.13;;;1.00;;
9214;SDS011;4642;51.364;6.788;2023-07-20T10:22:13;0.90;;;0.70;;
9214;SDS011;4642;51.364;6.788;2023-07-20T10:24:44;2.73;;;0.97;;
9214;SDS011;4642;51.364;6.788;2023-07-20T10:27:10;1.30;;;0.70;;
9214;SDS011;4642;51.364;6.788;2023-07-20T10:29:36;1.13;;;0.87;;
9214;SDS011;4642;51.364;6.788;2023-07-20T10:32:03;1.77;;;0.60;;
9214;SDS011;4642;51.364;6.788;2023-07-20T10:34:29;5.07;;;0.90;;
9214;SDS011;4642;51.364;6.788;2023-07-20T10:36:55;2.87;;;0.80;;
9214;SDS011;4642;51.364;6.788;2023-07-20T10:39:27;2.67;;;0.70;;
9214;SDS011;4642;51.364;6.788;2023-07-20T10:42:14;0.97;;;0.63;;
9214;SDS011;4642;51.364;6.788;2023-07-20T10:44:39;1.57;;;0.80;;
9214;SDS011;4642;51.364;6.788;2023-07-20T10:47:09;1.40;;;0.67;;
9214;SDS011;4642;51.364;6.788;2023-07-20T10:49:38;1.37;;;0.50;;
9214;SDS011;4642;51.364;6.788;2023-07-20T10:52:25;0.70;;;0.60;;
9214;SDS011;4642;51.364;6.788;2023-07-20T10:54:51;2.23;;;0.80;;
9214;SDS011;4642;51.364;6.788;2023-07-20T10:57:38;2.87;;;0.77;;
9214;SDS011;4642;51.364;6.788;2023-07-20T11:00:14;1.30;;;0.90;;
9214;SDS011;4642;51.364;6.788;2023-07-20T11:02:47;1.33;;;0.70;;
9214;SDS011;4642;51.364;6.788;2023-07-20T11:05:56;0.67;;;0.60;;
9214;SDS011;4642;51.364;6.788;2023-07-20T11:08:04;2.23;;;0.80;;
9214;SDS011;4642;51.364;6.788;2023-07-20T11:10:50;0.97;;;0.60;;
9214;SDS011;4642;51.364;6.788;2023-07-20T11:16:31;1.47;;;0.70;;
9214;SDS011;4642;51.364;6.788;2023-07-20T11:18:58;0.70;;;0.70;;
9214;SDS011;4642;51.364;6.788;2023-07-20T11:21:24;1.37;;;0.73;;
9214;SDS011;4642;51.364;6.788;2023-07-20T11:23:51;0.93;;;0.70;;
9214;SDS011;4642;51.364;6.788;2023-07-20T11:26:17;0.90;;;0.67;;
9214;SDS011;4642;51.364;6.788;2023-07-20T11:28:48;3.33;;;0.80;;
9214;SDS011;4642;51.364;6.788;2023-07-20T11:31:17;1.73;;;0.70;;
9214;SDS011;4642;51.364;6.788;2023-07-20T11:33:43;2.20;;;0.80;;
9214;SDS011;4642;51.364;6.788;2023-07-20T11:36:09;2.00;;;0.60;;
9214;SDS011;4642;51.364;6.788;2023-07-20T11:38:35;0.80;;;0.60;;
9214;SDS011;4642;51.364;6.788;2023-07-20T11:41:02;1.00;;;0.70;;
9214;SDS011;4642;51.364;6.788;2023-07-20T11:43:28;1.13;;;0.80;;
9214;SDS011;4642;51.364;6.788;2023-07-20T11:45:55;0.60;;;0.50;;
9214;SDS011;4642;51.364;6.788;2023-07-20T11:48:20;1.33;;;0.70;;
9214;SDS011;4642;51.364;6.788;2023-07-20T11:50:46;1.50;;;0.87;;
9214;SDS011;4642;51.364;6.788;2023-07-20T11:53:12;2.00;;;0.70;;
9214;SDS011;4642;51.364;6.788;2023-07-20T11:55:39;5.60;;;0.80;;
9214;SDS011;4642;51.364;6.788;2023-07-20T11:58:06;3.00;;;1.07;;
9214;SDS011;4642;51.364;6.788;2023-07-20T12:00:33;1.20;;;0.83;;
9214;SDS011;4642;51.364;6.788;2023-07-20T12:03:00;1.00;;;0.53;;
9214;SDS011;4642;51.364;6.788;2023-07-20T12:05:25;2.83;;;0.87;;
9214;SDS011;4642;51.364;6.788;2023-07-20T12:07:51;1.00;;;0.90;;
9214;SDS011;4642;51.364;6.788;2023-07-20T12:10:22;1.50;;;0.93;;
9214;SDS011;4642;51.364;6.788;2023-07-20T12:12:53;1.70;;;0.87;;
9214;SDS011;4642;51.364;6.788;2023-07-20T12:17:45;1.50;;;0.80;;
9214;SDS011;4642;51.364;6.788;2023-07-20T12:20:12;1.20;;;0.63;;
9214;SDS011;4642;51.364;6.788;2023-07-20T12:22:38;1.53;;;0.60;;
9214;SDS011;4642;51.364;6.788;2023-07-20T12:25:05;1.43;;;0.60;;
9214;SDS011;4642;51.364;6.788;2023-07-20T12:27:32;0.63;;;0.50;;
9214;SDS011;4642;51.364;6.788;2023-07-20T12:29:58;1.33;;;0.60;;
9214;SDS011;4642;51.364;6.788;2023-07-20T12:32:23;1.03;;;0.50;;
9214;SDS011;4642;51.364;6.788;2023-07-20T12:34:49;2.53;;;0.80;;
9214;SDS011;4642;51.364;6.788;2023-07-20T12:37:17;0.70;;;0.50;;
9214;SDS011;4642;51.364;6.788;2023-07-20T12:39:43;1.70;;;0.50;;
9214;SDS011;4642;51.364;6.788;2023-07-20T12:42:12;5.07;;;0.70;;
9214;SDS011;4642;51.364;6.788;2023-07-20T12:44:39;1.10;;;0.70;;
9214;SDS011;4642;51.364;6.788;2023-07-20T12:47:05;1.10;;;0.67;;
9214;SDS011;4642;51.364;6.788;2023-07-20T12:49:30;0.93;;;0.53;;
9214;SDS011;4642;51.364;6.788;2023-07-20T12:51:56;2.90;;;0.77;;
9214;SDS011;4642;51.364;6.788;2023-07-20T12:54:22;2.37;;;0.80;;
9214;SDS011;4642;51.364;6.788;2023-07-20T12:56:47;2.33;;;0.60;;
9214;SDS011;4642;51.364;6.788;2023-07-20T12:59:13;2.40;;;0.87;;
9214;SDS011;4642;51.364;6.788;2023-07-20T13:01:38;0.80;;;0.53;;
9214;SDS011;4642;51.364;6.788;2023-07-20T13:04:06;1.83;;;0.70;;
9214;SDS011;4642;51.364;6.788;2023-07-20T13:06:34;1.23;;;0.67;;
9214;SDS011;4642;51.364;6.788;2023-07-20T13:09:00;1.00;;;0.70;;
9214;SDS011;4642;51.364;6.788;2023-07-20T13:11:25;1.67;;;0.73;;
9214;SDS011;4642;51.364;6.788;2023-07-20T13:13:51;3.93;;;0.90;;
9214;SDS011;4642;51.364;6.788;2023-07-20T13:16:17;1.20;;;0.80;;
9214;SDS011;4642;51.364;6.788;2023-07-20T13:18:42;1.43;;;0.80;;
9214;SDS011;4642;51.364;6.788;2023-07-20T13:21:08;1.10;;;0.77;;
9214;SDS011;4642;51.364;6.788;2023-07-20T13:23:39;1.33;;;0.70;;
9214;SDS011;4642;51.364;6.788;2023-07-20T13:26:04;4.20;;;1.00;;
9214;SDS011;4642;51.364;6.788;2023-07-20T13:28:30;2.60;;;0.67;;
9214;SDS011;4642;51.364;6.788;2023-07-20T13:30:56;1.10;;;0.63;;
9214;SDS011;4642;51.364;6.788;2023-07-20T13:33:21;3.27;;;0.77;;
9214;SDS011;4642;51.364;6.788;2023-07-20T13:35:47;2.87;;;0.60;;
9214;SDS011;4642;51.364;6.788;2023-07-20T13:38:12;1.57;;;0.80;;
9214;SDS011;4642;51.364;6.788;2023-07-20T13:40:38;1.83;;;0.70;;
9214;SDS011;4642;51.364;6.788;2023-07-20T13:43:04;1.90;;;0.93;;
9214;SDS011;4642;51.364;6.788;2023-07-20T13:45:29;1.10;;;0.90;;
9214;SDS011;4642;51.364;6.788;2023-07-20T13:47:55;1.43;;;0.70;;
9214;SDS011;4642;51.364;6.788;2023-07-20T13:50:20;1.93;;;1.10;;
9214;SDS011;4642;51.364;6.788;2023-07-20T13:52:46;2.13;;;1.20;;
9214;SDS011;4642;51.364;6.788;2023-07-20T13:55:12;1.53;;;1.03;;
9214;SDS011;4642;51.364;6.788;2023-07-20T13:57:37;1.87;;;1.27;;
9214;SDS011;4642;51.364;6.788;2023-07-20T14:00:03;2.07;;;1.40;;
9214;SDS011;4642;51.364;6.788;2023-07-20T14:02:29;2.53;;;0.90;;
9214;SDS011;4642;51.364;6.788;2023-07-20T14:04:55;1.93;;;0.97;;
9214;SDS011;4642;51.364;6.788;2023-07-20T14:07:21;2.60;;;0.80;;
9214;SDS011;4642;51.364;6.788;2023-07-20T14:09:47;1.57;;;0.80;;
9214;SDS011;4642;51.364;6.788;2023-07-20T14:12:13;1.03;;;0.40;;
9214;SDS011;4642;51.364;6.788;2023-07-20T14:14:39;1.17;;;0.60;;
9214;SDS011;4642;51.364;6.788;2023-07-20T14:17:06;1.43;;;0.90;;
9214;SDS011;4642;51.364;6.788;2023-07-20T14:19:32;1.93;;;0.60;;
9214;SDS011;4642;51.364;6.788;2023-07-20T14:21:57;2.23;;;0.70;;
9214;SDS011;4642;51.364;6.788;2023-07-20T14:24:24;1.63;;;0.70;;
9214;SDS011;4642;51.364;6.788;2023-07-20T14:26:50;1.60;;;0.80;;
9214;SDS011;4642;51.364;6.788;2023-07-20T14:29:16;0.67;;;0.60;;
9214;SDS011;4642;51.364;6.788;2023-07-20T14:31:43;0.93;;;0.73;;
9214;SDS011;4642;51.364;6.788;2023-07-20T14:34:09;1.93;;;0.90;;
9214;SDS011;4642;51.364;6.788;2023-07-20T14:36:34;0.70;;;0.60;;
9214;SDS011;4642;51.364;6.788;2023-07-20T14:39:00;2.40;;;0.77;;
9214;SDS011;4642;51.364;6.788;2023-07-20T14:41:26;0.90;;;0.63;;
9214;SDS011;4642;51.364;6.788;2023-07-20T14:43:51;0.77;;;0.63;;
9214;SDS011;4642;51.364;6.788;2023-07-20T14:46:17;0.77;;;0.70;;
9214;SDS011;4642;51.364;6.788;2023-07-20T14:48:42;1.43;;;0.60;;
9214;SDS011;4642;51.364;6.788;2023-07-20T14:51:08;1.10;;;0.80;;
9214;SDS011;4642;51.364;6.788;2023-07-20T14:53:33;1.93;;;0.60;;
9214;SDS011;4642;51.364;6.788;2023-07-20T14:56:00;1.50;;;0.80;;
9214;SDS011;4642;51.364;6.788;2023-07-20T14:58:26;0.73;;;0.63;;
9214;SDS011;4642;51.364;6.788;2023-07-20T15:00:52;0.80;;;0.80;;
9214;SDS011;4642;51.364;6.788;2023-07-20T15:03:17;2.30;;;0.73;;
9214;SDS011;4642;51.364;6.788;2023-07-20T15:05:43;0.90;;;0.70;;
9214;SDS011;4642;51.364;6.788;2023-07-20T15:08:08;1.37;;;0.70;;
9214;SDS011;4642;51.364;6.788;2023-07-20T15:10:34;1.00;;;0.60;;
9214;SDS011;4642;51.364;6.788;2023-07-20T15:13:00;2.73;;;0.80;;
9214;SDS011;4642;51.364;6.788;2023-07-20T15:21:44;0.90;;;0.80;;
9214;SDS011;4642;51.364;6.788;2023-07-20T15:27:43;1.53;;;0.50;;
9214;SDS011;4642;51.364;6.788;2023-07-20T15:30:09;0.67;;;0.60;;
9214;SDS011;4642;51.364;6.788;2023-07-20T15:32:35;2.67;;;0.77;;
9214;SDS011;4642;51.364;6.788;2023-07-20T15:35:01;0.60;;;0.53;;
9214;SDS011;4642;51.364;6.788;2023-07-20T15:37:28;0.70;;;0.60;;
9214;SDS011;4642;51.364;6.788;2023-07-20T15:39:54;2.60;;;0.60;;